Current Conditions
Scattered
Clouds



Pressure
29.91 (inHG) - 1012.92 (mb)
Visibility

6.2 (miles) - 10.0 (km)
Temperature
57  °F
Temperature
46  °F
Dewpoint
67  %
 Humidity
Wind Speed
13  mph
11  kts
21  km/h
5.8  m/s
Wind Direction
N
45°
E
90°
135°
S
180°
225°
W
270°
315°
 200°

South South
West
Airport Data
LTBA
İstanbul Atatürk Airport
Metar :LTBA 021920Z 20011KT 9999 SCT030 BKN070 14/08 Q1013 NOSIG RMK RWY23 21011KT
Thu 2nd December 14:20 pm
Raw Metar Info
Raw METAR is the most common format in the world for the transmission of observational weather data. It is highly standardized through the International Civil Aviation Organization (ICAO), which allows it to be understood throughout most of the world.
API Info
Data Provided by
https://www.checkwx.com/weather/LTBA

Aviation Weather providing METAR, TAF, AIRMET, SIGMET and OUTLOOK Weather Reports
© Info
CSS/SVG/PHP scripts were developed by weather34.com for use in the weather34 template © 2015-2021

Guide Info provided by Metar-Wikipedia